Time;durP1;ratioP1;P1;durP2;ratioP2;P2;SDS_P1;SDS_P2;PMS_P1;PMS_P2;Temp;Humidity;BMP_temperature;BMP_pressure;BME280_temperature;BME280_humidity;BME280_pressure;Samples;Min_cycle;Max_cycle;Signal;HPM_P1;HPM_P2
2022/07/20 00:01:20;;;;;;;1.35;0.82;;;23.80;56.20;;;;;;20514552;28;20042;-71
2022/07/20 00:11:21;;;;;;;1.90;1.20;;;23.80;56.10;;;;;;20539648;28;20043;-72
2022/07/20 00:21:21;;;;;;;1.47;1.00;;;23.70;56.10;;;;;;20510545;28;20305;-70
2022/07/20 00:31:22;;;;;;;2.33;1.08;;;23.80;56.10;;;;;;20508961;28;20035;-71
2022/07/20 00:41:22;;;;;;;1.67;0.90;;;23.80;56.10;;;;;;20492954;28;20034;-72
2022/07/20 00:51:23;;;;;;;1.67;1.10;;;23.80;56.10;;;;;;20491814;28;20056;-70
2022/07/20 01:01:24;;;;;;;2.05;1.10;;;23.80;56.10;;;;;;20906814;23;20586;-70
2022/07/20 01:11:25;;;;;;;1.98;1.25;;;23.80;56.10;;;;;;20587398;28;20097;-72
2022/07/20 01:21:26;;;;;;;2.33;1.13;;;23.80;56.00;;;;;;20599998;28;20431;-71
2022/07/20 01:31:27;;;;;;;1.85;1.10;;;23.80;56.00;;;;;;20558923;28;20134;-71
2022/07/20 01:41:27;;;;;;;1.67;0.90;;;23.80;56.00;;;;;;20606247;28;20077;-71
2022/07/20 01:51:28;;;;;;;2.40;1.65;;;23.70;55.90;;;;;;20600528;28;20134;-70
2022/07/20 02:01:28;;;;;;;2.70;1.08;;;23.80;55.90;;;;;;20613754;28;20038;-71
2022/07/20 02:11:29;;;;;;;1.30;0.93;;;23.70;55.90;;;;;;20590923;28;20089;-71
2022/07/20 02:21:30;;;;;;;2.22;1.45;;;23.70;55.80;;;;;;20587502;28;20034;-71
2022/07/20 02:31:30;;;;;;;3.50;1.60;;;23.70;55.80;;;;;;20593975;28;20142;-72
2022/07/20 02:41:32;;;;;;;1.83;1.30;;;23.70;55.80;;;;;;20599563;28;20297;-72
2022/07/20 02:51:33;;;;;;;3.03;1.15;;;23.70;55.80;;;;;;20592914;28;20431;-72
2022/07/20 03:01:34;;;;;;;2.90;1.33;;;23.70;55.70;;;;;;20600756;28;20101;-71
2022/07/20 03:11:34;;;;;;;1.42;1.00;;;23.70;55.70;;;;;;20578589;28;20330;-73
2022/07/20 03:21:35;;;;;;;2.05;1.27;;;23.70;55.70;;;;;;20594963;28;20109;-72
2022/07/20 03:31:35;;;;;;;1.98;1.45;;;23.70;55.60;;;;;;20579877;28;20392;-72
2022/07/20 03:41:36;;;;;;;2.05;1.40;;;23.70;55.60;;;;;;20588415;28;20477;-72
2022/07/20 03:51:38;;;;;;;1.85;1.20;;;23.70;55.50;;;;;;20625705;28;20544;-71
2022/07/20 04:01:38;;;;;;;2.08;1.58;;;23.70;55.50;;;;;;20575789;28;20041;-72
2022/07/20 04:11:39;;;;;;;3.03;1.60;;;23.70;55.50;;;;;;20586748;28;20121;-72
2022/07/20 04:21:39;;;;;;;2.20;1.42;;;23.70;55.50;;;;;;20585933;28;20031;-71
2022/07/20 04:31:40;;;;;;;3.08;1.60;;;23.70;55.50;;;;;;20588640;28;20066;-70
2022/07/20 04:41:41;;;;;;;3.05;1.70;;;23.60;55.40;;;;;;20588253;28;20038;-71
2022/07/20 04:51:42;;;;;;;4.28;1.63;;;23.70;55.50;;;;;;20571889;28;20129;-72
2022/07/20 05:01:42;;;;;;;3.30;1.50;;;23.70;55.50;;;;;;20606391;28;20042;-71
2022/07/20 05:11:43;;;;;;;2.57;1.67;;;23.70;55.60;;;;;;20598581;28;20039;-71
2022/07/20 05:21:43;;;;;;;2.45;1.50;;;23.70;55.60;;;;;;20571441;28;20372;-72
2022/07/20 05:31:44;;;;;;;2.50;1.33;;;23.70;55.60;;;;;;20581540;28;20480;-72
2022/07/20 05:41:45;;;;;;;1.20;1.05;;;23.70;55.70;;;;;;20582782;28;20030;-71
2022/07/20 05:51:45;;;;;;;3.10;1.57;;;23.70;55.70;;;;;;20582465;28;20401;-72
2022/07/20 06:01:46;;;;;;;1.42;1.20;;;23.70;55.80;;;;;;20588189;28;20047;-72
2022/07/20 06:11:46;;;;;;;2.42;1.42;;;23.70;55.80;;;;;;20585704;28;20125;-71
2022/07/20 06:21:47;;;;;;;2.15;1.40;;;23.80;55.80;;;;;;20585609;28;20034;-71
2022/07/20 06:31:47;;;;;;;1.30;1.03;;;23.80;55.80;;;;;;20611879;28;20106;-72
2022/07/20 06:41:48;;;;;;;2.25;1.17;;;23.80;55.80;;;;;;20612178;28;20085;-72
2022/07/20 06:51:50;;;;;;;2.00;1.17;;;23.90;55.80;;;;;;20586863;28;20397;-71
2022/07/20 07:01:50;;;;;;;2.65;1.25;;;23.90;55.80;;;;;;20583897;28;20042;-70
2022/07/20 07:11:51;;;;;;;2.40;1.08;;;23.90;55.80;;;;;;20609029;28;20165;-74
2022/07/20 07:21:52;;;;;;;2.50;1.27;;;23.90;55.80;;;;;;20589836;28;20030;-73
2022/07/20 07:31:58;;;;;;;5.70;1.00;;;24.00;55.80;;;;;;20600562;28;20305;-74
2022/07/20 07:41:59;;;;;;;2.10;1.20;;;24.00;55.80;;;;;;20627943;28;20749;-74
2022/07/20 07:51:59;;;;;;;2.38;1.20;;;24.00;55.80;;;;;;20605204;28;20042;-74
2022/07/20 08:02:00;;;;;;;1.30;1.10;;;24.10;55.90;;;;;;20608963;28;20045;-72
2022/07/20 08:12:01;;;;;;;1.55;0.80;;;24.10;55.90;;;;;;20585729;28;20472;-74
2022/07/20 08:22:01;;;;;;;1.50;0.93;;;24.10;55.90;;;;;;20603522;28;20267;-74
2022/07/20 08:32:02;;;;;;;1.50;0.93;;;24.20;55.90;;;;;;20589432;28;20048;-72
2022/07/20 08:42:03;;;;;;;2.45;1.38;;;24.20;55.90;;;;;;20578009;28;20286;-72
2022/07/20 08:52:04;;;;;;;1.87;1.10;;;24.20;55.90;;;;;;20613049;28;20102;-75
2022/07/20 09:02:07;;;;;;;1.25;0.90;;;24.20;55.80;;;;;;20599491;28;20294;-73
2022/07/20 09:12:07;;;;;;;1.08;0.80;;;24.30;55.90;;;;;;20598796;28;20045;-73
2022/07/20 09:22:20;;;;;;;0.98;0.80;;;24.30;55.90;;;;;;20587620;28;20030;-72
2022/07/20 09:32:21;;;;;;;1.40;0.82;;;24.30;55.80;;;;;;20587226;28;20061;-73
2022/07/20 09:42:41;;;;;;;1.35;1.00;;;24.30;55.80;;;;;;20584934;28;20035;-73
2022/07/20 09:52:42;;;;;;;1.38;0.77;;;24.30;55.80;;;;;;20584522;28;20035;-73
2022/07/20 10:02:46;;;;;;;2.50;0.88;;;24.30;55.70;;;;;;20613312;28;20085;-71
2022/07/20 10:12:46;;;;;;;1.33;1.17;;;24.30;55.70;;;;;;20607147;28;20046;-69
2022/07/20 10:23:16;;;;;;;1.98;0.98;;;24.30;55.80;;;;;;20630927;28;20049;-71
2022/07/20 10:33:17;;;;;;;2.80;1.10;;;24.40;55.80;;;;;;20607134;28;20034;-72
2022/07/20 10:43:17;;;;;;;1.05;0.70;;;24.40;55.80;;;;;;20584352;28;20057;-73
2022/07/20 10:53:18;;;;;;;4.32;1.77;;;24.50;55.90;;;;;;20613351;28;20034;-74
2022/07/20 11:03:27;;;;;;;6.00;2.30;;;24.50;55.90;;;;;;20638487;28;20117;-69
2022/07/20 11:13:28;;;;;;;3.75;1.88;;;24.50;56.00;;;;;;20599404;28;20069;-74
2022/07/20 11:23:50;;;;;;;7.37;2.57;;;24.50;56.00;;;;;;20589351;28;20034;-75
2022/07/20 11:33:51;;;;;;;3.60;1.92;;;24.50;56.00;;;;;;20602697;28;20152;-75
2022/07/20 11:43:52;;;;;;;9.55;2.42;;;24.50;56.10;;;;;;20582777;28;20035;-74
2022/07/20 11:53:52;;;;;;;5.30;2.25;;;24.50;56.10;;;;;;20610263;28;20034;-78
2022/07/20 12:03:57;;;;;;;4.37;1.77;;;24.50;56.20;;;;;;20629900;28;20039;-73
2022/07/20 12:13:57;;;;;;;5.13;2.15;;;24.60;56.20;;;;;;20627642;28;20383;-75
2022/07/20 12:23:58;;;;;;;3.33;1.63;;;24.50;56.20;;;;;;20546798;28;20129;-75
2022/07/20 12:34:14;;;;;;;3.90;1.45;;;24.60;56.30;;;;;;20604393;28;20396;-76
2022/07/20 12:44:24;;;;;;;4.55;1.70;;;24.70;56.30;;;;;;20587426;28;20043;-77
2022/07/20 12:54:25;;;;;;;3.33;1.67;;;24.60;56.20;;;;;;20626584;28;20038;-80
2022/07/20 13:04:26;;;;;;;3.22;1.55;;;24.60;56.30;;;;;;20598933;28;20046;-74
2022/07/20 13:14:26;;;;;;;2.00;1.07;;;24.70;56.30;;;;;;20591003;28;20030;-77
2022/07/20 13:24:27;;;;;;;2.97;1.50;;;24.70;56.30;;;;;;20561434;28;20294;-75
2022/07/20 13:34:28;;;;;;;3.43;1.63;;;24.80;56.30;;;;;;20623494;28;20130;-75
2022/07/20 13:44:28;;;;;;;2.28;1.13;;;24.90;56.30;;;;;;20607340;28;20357;-78
2022/07/20 13:54:29;;;;;;;3.50;1.50;;;24.90;56.90;;;;;;20610567;28;20062;-74
2022/07/20 14:04:29;;;;;;;3.33;1.70;;;25.10;56.20;;;;;;20605582;28;20389;-73
2022/07/20 14:14:30;;;;;;;5.13;1.55;;;25.20;56.00;;;;;;20616644;28;20041;-76
2022/07/20 14:24:31;;;;;;;3.97;1.83;;;25.30;55.90;;;;;;20643896;28;20034;-77
2022/07/20 14:34:31;;;;;;;4.32;1.83;;;25.30;55.70;;;;;;20600142;28;20109;-74
2022/07/20 14:44:32;;;;;;;4.03;1.55;;;25.50;55.70;;;;;;20589939;28;20045;-75
2022/07/20 14:54:32;;;;;;;6.05;1.90;;;25.60;55.80;;;;;;20591881;28;20034;-77
2022/07/20 15:04:33;;;;;;;2.97;1.80;;;25.60;55.50;;;;;;20615286;28;20055;-77
2022/07/20 15:14:34;;;;;;;2.95;1.63;;;25.70;55.50;;;;;;20593940;28;20037;-74
2022/07/20 15:24:34;;;;;;;5.27;1.67;;;25.80;55.30;;;;;;20600705;28;20038;-74
2022/07/20 15:34:35;;;;;;;4.47;1.77;;;25.80;55.10;;;;;;20608913;28;20922;-76
2022/07/20 15:44:35;;;;;;;3.13;1.63;;;25.90;55.10;;;;;;20607903;28;20049;-81
2022/07/20 15:54:36;;;;;;;4.38;2.45;;;26.00;55.10;;;;;;20621384;28;20089;-79
2022/07/20 16:04:37;;;;;;;7.03;1.70;;;26.10;55.10;;;;;;20640237;28;20039;-79
2022/07/20 16:14:37;;;;;;;2.63;1.50;;;26.10;54.90;;;;;;20572051;28;20031;-79
2022/07/20 16:24:38;;;;;;;2.17;1.17;;;26.20;54.90;;;;;;20578464;28;20130;-75
2022/07/20 16:34:40;;;;;;;2.80;1.57;;;26.20;54.90;;;;;;20602599;28;20027;-73
2022/07/20 16:44:40;;;;;;;3.03;1.40;;;26.20;54.80;;;;;;20593370;28;20062;-73
2022/07/20 16:54:41;;;;;;;2.17;1.30;;;26.30;54.80;;;;;;20586454;28;20122;-73
2022/07/20 17:04:42;;;;;;;3.38;1.40;;;26.30;54.80;;;;;;20587537;28;20039;-74
2022/07/20 17:14:42;;;;;;;2.20;1.35;;;26.30;54.70;;;;;;20534729;28;20081;-73
2022/07/20 17:24:43;;;;;;;2.50;1.25;;;26.30;54.60;;;;;;20615230;28;20042;-72
2022/07/20 17:34:43;;;;;;;2.38;1.10;;;26.30;54.60;;;;;;20632026;28;20428;-74
2022/07/20 17:44:44;;;;;;;1.98;0.93;;;26.30;54.50;;;;;;20647226;28;20552;-72
2022/07/20 17:54:44;;;;;;;2.00;1.02;;;26.30;54.50;;;;;;20634521;28;20076;-73
2022/07/20 18:04:45;;;;;;;1.90;0.95;;;26.30;54.40;;;;;;20605238;28;20129;-73
2022/07/20 18:14:46;;;;;;;1.53;1.03;;;26.30;54.40;;;;;;20612684;28;20038;-74
2022/07/20 18:24:46;;;;;;;3.25;1.45;;;26.30;54.40;;;;;;20622168;28;20043;-75
2022/07/20 18:34:47;;;;;;;1.92;1.20;;;26.20;54.50;;;;;;20558995;28;20121;-73
2022/07/20 18:44:48;;;;;;;2.38;1.02;;;26.10;54.50;;;;;;20593881;28;20119;-75
2022/07/20 18:54:48;;;;;;;4.20;1.07;;;26.10;54.70;;;;;;20561859;28;20042;-73
2022/07/20 19:04:50;;;;;;;2.58;1.20;;;26.00;54.80;;;;;;20618752;28;20312;-78
2022/07/20 19:14:50;;;;;;;2.22;1.23;;;26.00;55.00;;;;;;20558121;28;20034;-79
2022/07/20 19:24:51;;;;;;;1.35;1.00;;;26.00;55.20;;;;;;20603536;28;20515;-78
2022/07/20 19:34:54;;;;;;;2.40;1.13;;;25.90;55.30;;;;;;20610990;28;20396;-77
2022/07/20 19:44:54;;;;;;;1.77;1.10;;;25.90;55.50;;;;;;20595434;28;20042;-77
2022/07/20 19:54:55;;;;;;;3.85;1.23;;;25.90;55.60;;;;;;20600769;28;20444;-74
2022/07/20 20:04:55;;;;;;;2.13;1.55;;;25.90;55.80;;;;;;20613149;28;20066;-74
2022/07/20 20:14:56;;;;;;;4.88;2.78;;;25.90;55.50;;;;;;20611156;28;20035;-77
2022/07/20 20:24:56;;;;;;;4.65;2.95;;;25.90;55.20;;;;;;20588003;28;20525;-73
2022/07/20 20:34:57;;;;;;;4.10;2.58;;;25.90;55.10;;;;;;20573171;28;20045;-74
2022/07/20 20:44:58;;;;;;;3.58;2.47;;;25.90;55.30;;;;;;20613263;28;20181;-74
2022/07/20 20:54:58;;;;;;;4.97;2.97;;;25.80;55.30;;;;;;20603128;28;20441;-74
2022/07/20 21:04:59;;;;;;;5.97;3.42;;;25.80;55.40;;;;;;20604352;28;20374;-73
2022/07/20 21:15:00;;;;;;;4.10;3.50;;;25.80;55.50;;;;;;20586531;28;20508;-74
2022/07/20 21:25:00;;;;;;;6.00;4.22;;;25.80;55.60;;;;;;20590371;28;20070;-74
2022/07/20 21:35:01;;;;;;;7.72;4.60;;;25.80;55.70;;;;;;20585210;28;20030;-74
2022/07/20 21:45:02;;;;;;;6.35;5.40;;;25.80;55.60;;;;;;20620801;28;20121;-74
2022/07/20 21:55:03;;;;;;;10.52;5.45;;;25.80;55.70;;;;;;20569242;28;20126;-74
2022/07/20 22:05:04;;;;;;;8.00;5.47;;;25.80;55.80;;;;;;20614814;28;20046;-75
2022/07/20 22:15:06;;;;;;;7.57;5.32;;;25.80;55.80;;;;;;20583753;28;20027;-74
2022/07/20 22:25:07;;;;;;;7.07;6.18;;;25.80;55.80;;;;;;20572463;28;20043;-73
2022/07/20 22:35:08;;;;;;;7.57;5.55;;;25.80;55.90;;;;;;20598714;28;20030;-74
2022/07/20 22:45:09;;;;;;;9.68;5.68;;;25.70;55.90;;;;;;20597799;28;20048;-74
2022/07/20 22:55:10;;;;;;;8.00;6.53;;;25.80;56.10;;;;;;20593577;28;20034;-74
2022/07/20 23:05:11;;;;;;;8.50;6.63;;;25.70;56.10;;;;;;20606901;28;20485;-75
2022/07/20 23:15:12;;;;;;;10.93;6.50;;;25.80;56.20;;;;;;20594924;28;20410;-74
2022/07/20 23:25:12;;;;;;;8.10;6.55;;;25.70;56.20;;;;;;20592391;28;20045;-74
2022/07/20 23:35:13;;;;;;;8.77;7.10;;;25.70;56.30;;;;;;20623446;28;20039;-74
2022/07/20 23:45:14;;;;;;;8.73;7.30;;;25.70;56.30;;;;;;20606335;28;20043;-76
2022/07/20 23:55:16;;;;;;;11.05;7.40;;;25.70;56.40;;;;;;20611596;28;20043;-74
